DAL1889 KATL-TIST
Flight info
| Callsign | DAL1889 |
|---|---|
| Flight time | N/A |
| Altitude | 39000 |
| Route | VRSTY3 NOKIE DCT YANTI Q89 MANLE Y185 RENAH Y355 KOLAO DCT JETSS DCT |
| Aircraft | B752/M-SDFHIRWXY/S |
Departure
| Time | 2026-05-06 21:54 |
|---|---|
| Airport | Hartsfield Jackson Atlanta International Airport (KATL) |
Arrival
| Time | N/A |
|---|---|
| Airport | Cyril E. King Airport (TIST) |
| Time | Latitude | Longitude | Altitude | Speed | Heading |
|---|---|---|---|---|---|
| 2026-05-06 21:31 | 33.63876 | -84.43643 | 1037 ft | 0 kts | 90° |
| 2026-05-06 21:45 | 33.63876 | -84.43645 | 1037 ft | 1 kts | 90° |
| 2026-05-06 21:46 | 33.63876 | -84.43662 | 1037 ft | 3 kts | 81° |
| 2026-05-06 21:46 | 33.63870 | -84.43683 | 1037 ft | 3 kts | 59° |
| 2026-05-06 21:46 | 33.63856 | -84.43702 | 1037 ft | 3 kts | 37° |
| 2026-05-06 21:46 | 33.63838 | -84.43712 | 1037 ft | 3 kts | 16° |
| 2026-05-06 21:47 | 33.63818 | -84.43715 | 1037 ft | 3 kts | 0° |
| 2026-05-06 21:47 | 33.63800 | -84.43715 | 1037 ft | 0 kts | 0° |
| 2026-05-06 21:48 | 33.63806 | -84.43715 | 1037 ft | 5 kts | 0° |
| 2026-05-06 21:49 | 33.63879 | -84.43731 | 1037 ft | 11 kts | 302° |
| 2026-05-06 21:49 | 33.63832 | -84.43753 | 1037 ft | 15 kts | 169° |
| 2026-05-06 21:49 | 33.63709 | -84.43725 | 1037 ft | 18 kts | 163° |
| 2026-05-06 21:49 | 33.63665 | -84.43594 | 1037 ft | 24 kts | 90° |
| 2026-05-06 21:50 | 33.63663 | -84.43369 | 1037 ft | 27 kts | 90° |
| 2026-05-06 21:50 | 33.63664 | -84.43134 | 1037 ft | 30 kts | 89° |
| 2026-05-06 21:50 | 33.63664 | -84.42884 | 1037 ft | 30 kts | 90° |
| 2026-05-06 21:50 | 33.63656 | -84.42634 | 1037 ft | 30 kts | 89° |
| 2026-05-06 21:51 | 33.63655 | -84.42388 | 1037 ft | 30 kts | 91° |
| 2026-05-06 21:51 | 33.63634 | -84.42153 | 1037 ft | 27 kts | 127° |
| 2026-05-06 21:51 | 33.63583 | -84.41951 | 1037 ft | 28 kts | 91° |
| 2026-05-06 21:51 | 33.63582 | -84.41703 | 1037 ft | 31 kts | 91° |
| 2026-05-06 21:52 | 33.63582 | -84.41442 | 1037 ft | 31 kts | 90° |
| 2026-05-06 21:52 | 33.63581 | -84.41190 | 1037 ft | 30 kts | 88° |
| 2026-05-06 21:52 | 33.63565 | -84.41048 | 1037 ft | 10 kts | 155° |
| 2026-05-06 21:52 | 33.63496 | -84.41042 | 1037 ft | 11 kts | 199° |
| 2026-05-06 21:53 | 33.63472 | -84.41170 | 1037 ft | 28 kts | 270° |
| 2026-05-06 21:53 | 33.63472 | -84.41664 | 1037 ft | 91 kts | 269° |
| 2026-05-06 21:53 | 33.63472 | -84.42660 | 1037 ft | 147 kts | 269° |
| 2026-05-06 21:53 | 33.63489 | -84.44028 | 1282 ft | 170 kts | 269° |
| 2026-05-06 21:54 | 33.63517 | -84.45454 | 2020 ft | 173 kts | 264° |
| 2026-05-06 21:54 | 33.63481 | -84.46916 | 2655 ft | 185 kts | 264° |
| 2026-05-06 21:54 | 33.63420 | -84.48570 | 3048 ft | 212 kts | 265° |
| 2026-05-06 21:54 | 33.63398 | -84.50389 | 3806 ft | 219 kts | 268° |
| 2026-05-06 21:55 | 33.63396 | -84.52258 | 4517 ft | 233 kts | 266° |
| 2026-05-06 21:55 | 33.63364 | -84.54243 | 5253 ft | 241 kts | 266° |
| 2026-05-06 21:55 | 33.63351 | -84.56300 | 5956 ft | 252 kts | 266° |
| 2026-05-06 21:55 | 33.63359 | -84.58424 | 6773 ft | 256 kts | 268° |
| 2026-05-06 21:56 | 33.63401 | -84.60581 | 7585 ft | 260 kts | 268° |
| 2026-05-06 21:56 | 33.63446 | -84.62760 | 8384 ft | 263 kts | 268° |
| 2026-05-06 21:56 | 33.63461 | -84.64941 | 9145 ft | 267 kts | 267° |
| 2026-05-06 21:56 | 33.63154 | -84.67119 | 9882 ft | 267 kts | 246° |
| 2026-05-06 21:57 | 33.62062 | -84.68889 | 10829 ft | 266 kts | 223° |
| 2026-05-06 21:57 | 33.60402 | -84.69881 | 11768 ft | 274 kts | 200° |
| 2026-05-06 21:57 | 33.58450 | -84.69922 | 12558 ft | 291 kts | 176° |
| 2026-05-06 21:57 | 33.56559 | -84.68923 | 13422 ft | 307 kts | 152° |
| 2026-05-06 21:58 | 33.54982 | -84.67145 | 14245 ft | 317 kts | 140° |
| 2026-05-06 21:58 | 33.53518 | -84.65098 | 14787 ft | 330 kts | 136° |
| 2026-05-06 21:58 | 33.52060 | -84.62951 | 15272 ft | 342 kts | 136° |
| 2026-05-06 21:58 | 33.50541 | -84.60683 | 15727 ft | 356 kts | 135° |
| 2026-05-06 21:59 | 33.48951 | -84.58303 | 16162 ft | 369 kts | 135° |
| 2026-05-06 21:59 | 33.47340 | -84.55887 | 16567 ft | 382 kts | 135° |
| 2026-05-06 21:59 | 33.45651 | -84.53356 | 16955 ft | 396 kts | 135° |
| 2026-05-06 21:59 | 33.43905 | -84.50738 | 17316 ft | 409 kts | 135° |
| 2026-05-06 22:00 | 33.42099 | -84.48030 | 17649 ft | 423 kts | 134° |
| 2026-05-06 22:00 | 33.40235 | -84.45235 | 17965 ft | 436 kts | 134° |
| 2026-05-06 22:00 | 33.38315 | -84.42357 | 18264 ft | 450 kts | 134° |
| 2026-05-06 22:00 | 33.36334 | -84.39385 | 18631 ft | 461 kts | 134° |
| 2026-05-06 22:01 | 33.34321 | -84.36362 | 19155 ft | 467 kts | 134° |
| 2026-05-06 22:01 | 33.32289 | -84.33306 | 19724 ft | 472 kts | 134° |
| 2026-05-06 22:01 | 33.30243 | -84.30230 | 20289 ft | 476 kts | 134° |
| 2026-05-06 22:01 | 33.28172 | -84.27117 | 20825 ft | 480 kts | 134° |
| 2026-05-06 22:02 | 33.26111 | -84.24021 | 21327 ft | 485 kts | 133° |
| 2026-05-06 22:02 | 33.24001 | -84.20852 | 21820 ft | 489 kts | 133° |
| 2026-05-06 22:02 | 33.21878 | -84.17666 | 22279 ft | 493 kts | 133° |
| 2026-05-06 22:02 | 33.19738 | -84.14455 | 22726 ft | 497 kts | 133° |
| 2026-05-06 22:03 | 33.17576 | -84.11213 | 23157 ft | 501 kts | 133° |
| 2026-05-06 22:03 | 33.15399 | -84.07951 | 23590 ft | 504 kts | 133° |
| 2026-05-06 22:03 | 33.13206 | -84.04664 | 23981 ft | 507 kts | 133° |
| 2026-05-06 22:03 | 33.11003 | -84.01361 | 24373 ft | 511 kts | 133° |
| 2026-05-06 22:04 | 33.08748 | -83.98086 | 24713 ft | 512 kts | 136° |
| 2026-05-06 22:04 | 33.06189 | -83.95215 | 24930 ft | 512 kts | 146° |
| 2026-05-06 22:04 | 33.03338 | -83.92679 | 25261 ft | 511 kts | 151° |
| 2026-05-06 22:04 | 33.00378 | -83.90331 | 25674 ft | 511 kts | 153° |
| 2026-05-06 22:05 | 32.97402 | -83.88033 | 26076 ft | 512 kts | 153° |
| 2026-05-06 22:05 | 32.94413 | -83.85690 | 26429 ft | 515 kts | 152° |
| 2026-05-06 22:05 | 32.91438 | -83.83293 | 26760 ft | 518 kts | 151° |
| 2026-05-06 22:05 | 32.88472 | -83.80850 | 27068 ft | 521 kts | 150° |
| 2026-05-06 22:06 | 32.85528 | -83.78395 | 27366 ft | 524 kts | 150° |
| 2026-05-06 22:06 | 32.82541 | -83.75894 | 27647 ft | 527 kts | 150° |
| 2026-05-06 22:06 | 32.79543 | -83.73386 | 27911 ft | 530 kts | 150° |
| 2026-05-06 22:06 | 32.76516 | -83.70859 | 28144 ft | 533 kts | 150° |
| 2026-05-06 22:07 | 32.73474 | -83.68328 | 28339 ft | 537 kts | 150° |
| 2026-05-06 22:07 | 32.70408 | -83.65781 | 28616 ft | 538 kts | 150° |
| 2026-05-06 22:07 | 32.67358 | -83.63199 | 28960 ft | 538 kts | 149° |
| 2026-05-06 22:07 | 32.64334 | -83.60569 | 29297 ft | 538 kts | 149° |
| 2026-05-06 22:08 | 32.61322 | -83.57925 | 29595 ft | 539 kts | 149° |
| 2026-05-06 22:08 | 32.58353 | -83.55309 | 29878 ft | 539 kts | 149° |
| 2026-05-06 22:08 | 32.55342 | -83.52653 | 30152 ft | 540 kts | 149° |
| 2026-05-06 22:08 | 32.52327 | -83.49995 | 30445 ft | 540 kts | 149° |
| 2026-05-06 22:09 | 32.49317 | -83.47342 | 30754 ft | 540 kts | 149° |
| 2026-05-06 22:09 | 32.46294 | -83.44679 | 31066 ft | 540 kts | 149° |
| 2026-05-06 22:09 | 32.43282 | -83.42028 | 31385 ft | 540 kts | 149° |
| 2026-05-06 22:09 | 32.40271 | -83.39380 | 31715 ft | 540 kts | 149° |
| 2026-05-06 22:10 | 32.37259 | -83.36733 | 32050 ft | 539 kts | 149° |
| 2026-05-06 22:10 | 32.34249 | -83.34090 | 32409 ft | 539 kts | 149° |
| 2026-05-06 22:10 | 32.31281 | -83.31485 | 32762 ft | 538 kts | 149° |
| 2026-05-06 22:10 | 32.28276 | -83.28851 | 33114 ft | 538 kts | 149° |
| 2026-05-06 22:11 | 32.25278 | -83.26225 | 33460 ft | 537 kts | 150° |
| 2026-05-06 22:11 | 32.22275 | -83.23597 | 33798 ft | 537 kts | 150° |
| 2026-05-06 22:11 | 32.19271 | -83.20970 | 34110 ft | 536 kts | 150° |
| 2026-05-06 22:11 | 32.16273 | -83.18351 | 34400 ft | 537 kts | 150° |
| 2026-05-06 22:12 | 32.13271 | -83.15730 | 34714 ft | 536 kts | 150° |
| 2026-05-06 22:12 | 32.10272 | -83.13114 | 35015 ft | 536 kts | 150° |
| 2026-05-06 22:12 | 32.07286 | -83.10510 | 35313 ft | 535 kts | 150° |
| 2026-05-06 22:12 | 32.04333 | -83.07937 | 35606 ft | 534 kts | 150° |
| 2026-05-06 22:13 | 32.01352 | -83.05342 | 35885 ft | 534 kts | 150° |
| 2026-05-06 22:13 | 31.98367 | -83.02746 | 36164 ft | 533 kts | 150° |
| 2026-05-06 22:13 | 31.95384 | -83.00154 | 36445 ft | 532 kts | 150° |
| 2026-05-06 22:13 | 31.92405 | -82.97567 | 36725 ft | 531 kts | 150° |
| 2026-05-06 22:14 | 31.89432 | -82.94987 | 36997 ft | 530 kts | 150° |
| 2026-05-06 22:14 | 31.86469 | -82.92417 | 37238 ft | 529 kts | 150° |
| 2026-05-06 22:14 | 31.83514 | -82.89857 | 37475 ft | 529 kts | 150° |
| 2026-05-06 22:14 | 31.80552 | -82.87291 | 37712 ft | 528 kts | 150° |
| 2026-05-06 22:15 | 31.77650 | -82.84728 | 37979 ft | 528 kts | 149° |
| 2026-05-06 22:15 | 31.74761 | -82.82055 | 38242 ft | 528 kts | 148° |
| 2026-05-06 22:15 | 31.71917 | -82.79345 | 38466 ft | 528 kts | 147° |
| 2026-05-06 22:15 | 31.69072 | -82.76602 | 38641 ft | 528 kts | 147° |
| 2026-05-06 22:16 | 31.66238 | -82.73868 | 38822 ft | 528 kts | 148° |
| 2026-05-06 22:16 | 31.63386 | -82.71129 | 38964 ft | 528 kts | 148° |
| 2026-05-06 22:16 | 31.57688 | -82.65707 | 39032 ft | 528 kts | 148° |
| 2026-05-06 22:17 | 31.51976 | -82.60311 | 39033 ft | 527 kts | 148° |
| 2026-05-06 22:17 | 31.46308 | -82.54968 | 39030 ft | 527 kts | 148° |
| 2026-05-06 22:18 | 31.40590 | -82.49582 | 39032 ft | 528 kts | 148° |
| 2026-05-06 22:18 | 31.34866 | -82.44194 | 39031 ft | 528 kts | 148° |
| 2026-05-06 22:19 | 31.29174 | -82.38844 | 39030 ft | 527 kts | 148° |
| 2026-05-06 22:19 | 31.23462 | -82.33485 | 39029 ft | 527 kts | 148° |
| 2026-05-06 22:20 | 31.17738 | -82.28123 | 39029 ft | 527 kts | 148° |
| 2026-05-06 22:20 | 31.12000 | -82.22760 | 39031 ft | 528 kts | 148° |
| 2026-05-06 22:21 | 31.06275 | -82.17414 | 39032 ft | 528 kts | 148° |
| 2026-05-06 22:21 | 31.00577 | -82.12102 | 39029 ft | 527 kts | 148° |
| 2026-05-06 22:22 | 30.94842 | -82.06765 | 39029 ft | 528 kts | 148° |
| 2026-05-06 22:22 | 30.89105 | -82.01434 | 39028 ft | 528 kts | 148° |
| 2026-05-06 22:23 | 30.83358 | -81.96104 | 39028 ft | 530 kts | 147° |
| 2026-05-06 22:23 | 30.77616 | -81.90787 | 39027 ft | 532 kts | 147° |
| 2026-05-06 22:24 | 30.71830 | -81.85434 | 39020 ft | 531 kts | 147° |
| 2026-05-06 22:24 | 30.66045 | -81.80090 | 39017 ft | 532 kts | 147° |
| 2026-05-06 22:25 | 30.60195 | -81.74824 | 39017 ft | 531 kts | 150° |
| 2026-05-06 22:25 | 30.54205 | -81.69945 | 39015 ft | 528 kts | 152° |
| 2026-05-06 22:26 | 30.48131 | -81.65159 | 39010 ft | 527 kts | 152° |
| 2026-05-06 22:26 | 30.42091 | -81.60356 | 39013 ft | 527 kts | 152° |
| 2026-05-06 22:27 | 30.36052 | -81.55507 | 39023 ft | 528 kts | 151° |
| 2026-05-06 22:27 | 30.30022 | -81.50658 | 39029 ft | 528 kts | 151° |
| 2026-05-06 22:28 | 30.24026 | -81.45849 | 39029 ft | 528 kts | 151° |
| 2026-05-06 22:28 | 30.17983 | -81.41017 | 39035 ft | 529 kts | 151° |
| 2026-05-06 22:29 | 30.11933 | -81.36185 | 39041 ft | 529 kts | 151° |
| 2026-05-06 22:29 | 30.05919 | -81.31389 | 39050 ft | 529 kts | 152° |
| 2026-05-06 22:30 | 29.99875 | -81.26577 | 39057 ft | 529 kts | 152° |
| 2026-05-06 22:30 | 29.93823 | -81.21767 | 39058 ft | 528 kts | 151° |
| 2026-05-06 22:31 | 29.87775 | -81.16965 | 39059 ft | 527 kts | 151° |
| 2026-05-06 22:31 | 29.81708 | -81.12320 | 39059 ft | 525 kts | 156° |
| 2026-05-06 22:32 | 29.75162 | -81.08705 | 39065 ft | 519 kts | 165° |
| 2026-05-06 22:32 | 29.68468 | -81.05732 | 39063 ft | 514 kts | 166° |
| 2026-05-06 22:33 | 29.61788 | -81.02764 | 39064 ft | 514 kts | 165° |
| 2026-05-06 22:33 | 29.55153 | -80.99675 | 39068 ft | 516 kts | 164° |
| 2026-05-06 22:34 | 29.48552 | -80.96543 | 39068 ft | 516 kts | 164° |
| 2026-05-06 22:34 | 29.41914 | -80.93401 | 39068 ft | 516 kts | 164° |
| 2026-05-06 22:35 | 29.35273 | -80.90278 | 39068 ft | 516 kts | 164° |
| 2026-05-06 22:35 | 29.28615 | -80.87158 | 39069 ft | 517 kts | 164° |
| 2026-05-06 22:36 | 29.21964 | -80.84043 | 39069 ft | 516 kts | 164° |
| 2026-05-06 22:36 | 29.15356 | -80.80951 | 39068 ft | 516 kts | 164° |
| 2026-05-06 22:37 | 29.08715 | -80.77849 | 39068 ft | 516 kts | 164° |
| 2026-05-06 22:37 | 29.02060 | -80.74744 | 39066 ft | 516 kts | 164° |
| 2026-05-06 22:38 | 28.95409 | -80.71645 | 39064 ft | 516 kts | 164° |
| 2026-05-06 22:38 | 28.88847 | -80.68320 | 39047 ft | 519 kts | 155° |
| 2026-05-06 22:39 | 28.85914 | -80.65979 | 39048 ft | 524 kts | 143° |
| 2026-05-06 22:39 | 28.83341 | -80.63028 | 39058 ft | 530 kts | 133° |
| 2026-05-06 22:39 | 28.79103 | -80.56089 | 39058 ft | 536 kts | 122° |
| 2026-05-06 22:40 | 28.75271 | -80.48776 | 39052 ft | 537 kts | 122° |
| 2026-05-06 22:40 | 28.71305 | -80.41576 | 39050 ft | 536 kts | 124° |
| 2026-05-06 22:41 | 28.65096 | -80.31068 | 39045 ft | 535 kts | 126° |
| 2026-05-06 22:42 | 28.60894 | -80.24069 | 39044 ft | 535 kts | 125° |
| 2026-05-06 22:42 | 28.56721 | -80.17077 | 39043 ft | 534 kts | 125° |
| 2026-05-06 22:43 | 28.52555 | -80.10077 | 39043 ft | 534 kts | 125° |
| 2026-05-06 22:43 | 28.48422 | -80.03141 | 39043 ft | 533 kts | 125° |
| 2026-05-06 22:44 | 28.44254 | -79.96165 | 39043 ft | 533 kts | 124° |
| 2026-05-06 22:44 | 28.40083 | -79.89195 | 39045 ft | 533 kts | 124° |
| 2026-05-06 22:45 | 28.35912 | -79.82239 | 39045 ft | 533 kts | 125° |
| 2026-05-06 22:45 | 28.31739 | -79.75289 | 39046 ft | 532 kts | 125° |
| 2026-05-06 22:46 | 28.27596 | -79.68400 | 39047 ft | 532 kts | 125° |
| 2026-05-06 22:46 | 28.23416 | -79.61463 | 39047 ft | 532 kts | 125° |
| 2026-05-06 22:47 | 28.19237 | -79.54536 | 39055 ft | 533 kts | 125° |
| 2026-05-06 22:47 | 28.15044 | -79.47599 | 39064 ft | 533 kts | 125° |
| 2026-05-06 22:48 | 28.10873 | -79.40709 | 39067 ft | 533 kts | 125° |
| 2026-05-06 22:48 | 28.06675 | -79.33786 | 39071 ft | 533 kts | 125° |
| 2026-05-06 22:49 | 28.02471 | -79.26863 | 39074 ft | 534 kts | 125° |
| 2026-05-06 22:49 | 27.98261 | -79.19942 | 39078 ft | 534 kts | 124° |
| 2026-05-06 22:50 | 27.94064 | -79.13054 | 39074 ft | 530 kts | 124° |
| 2026-05-06 22:50 | 27.89901 | -79.06232 | 39075 ft | 530 kts | 124° |
| 2026-05-06 22:51 | 27.85707 | -78.99369 | 39075 ft | 530 kts | 124° |
| 2026-05-06 22:51 | 27.81513 | -78.92520 | 39075 ft | 530 kts | 124° |
| 2026-05-06 22:52 | 27.77313 | -78.85670 | 39081 ft | 531 kts | 124° |
| 2026-05-06 22:52 | 27.73104 | -78.78816 | 39082 ft | 531 kts | 124° |
| 2026-05-06 22:53 | 27.68923 | -78.72018 | 39082 ft | 531 kts | 124° |
| 2026-05-06 22:53 | 27.64710 | -78.65176 | 39084 ft | 531 kts | 124° |
| 2026-05-06 22:54 | 27.60592 | -78.58273 | 39087 ft | 531 kts | 123° |
| 2026-05-06 22:54 | 27.56555 | -78.51303 | 39088 ft | 531 kts | 122° |
| 2026-05-06 22:55 | 27.52544 | -78.44384 | 39088 ft | 531 kts | 123° |
| 2026-05-06 22:55 | 27.48489 | -78.37446 | 39088 ft | 531 kts | 123° |
| 2026-05-06 22:56 | 27.44419 | -78.30513 | 39088 ft | 531 kts | 123° |
| 2026-05-06 22:56 | 27.40343 | -78.23581 | 39088 ft | 531 kts | 123° |
| 2026-05-06 22:57 | 27.36271 | -78.16664 | 39088 ft | 531 kts | 123° |
| 2026-05-06 22:57 | 27.32196 | -78.09749 | 39088 ft | 530 kts | 123° |
| 2026-05-06 22:58 | 27.28147 | -78.02885 | 39088 ft | 530 kts | 123° |
| 2026-05-06 22:58 | 27.24066 | -77.95979 | 39087 ft | 530 kts | 122° |
| 2026-05-06 22:59 | 27.19984 | -77.89082 | 39088 ft | 530 kts | 122° |
| 2026-05-06 22:59 | 27.15924 | -77.82233 | 39088 ft | 530 kts | 122° |
| 2026-05-06 23:00 | 27.11836 | -77.75347 | 39087 ft | 529 kts | 122° |
| 2026-05-06 23:00 | 27.07755 | -77.68484 | 39087 ft | 529 kts | 122° |
| 2026-05-06 23:01 | 27.03670 | -77.61623 | 39086 ft | 529 kts | 122° |
| 2026-05-06 23:01 | 26.99592 | -77.54762 | 39087 ft | 529 kts | 122° |
| 2026-05-06 23:02 | 26.95595 | -77.47912 | 39087 ft | 528 kts | 121° |
| 2026-05-06 23:02 | 26.91597 | -77.41027 | 39087 ft | 527 kts | 121° |
| 2026-05-06 23:03 | 26.87589 | -77.34149 | 39093 ft | 527 kts | 121° |
| 2026-05-06 23:03 | 26.83570 | -77.27279 | 39095 ft | 527 kts | 121° |
| 2026-05-06 23:04 | 26.79546 | -77.20416 | 39095 ft | 527 kts | 121° |
| 2026-05-06 23:04 | 26.75555 | -77.13617 | 39096 ft | 527 kts | 121° |
| 2026-05-06 23:05 | 26.71525 | -77.06762 | 39095 ft | 527 kts | 121° |
| 2026-05-06 23:05 | 26.67495 | -76.99915 | 39097 ft | 527 kts | 121° |
| 2026-05-06 23:06 | 26.63459 | -76.93070 | 39097 ft | 527 kts | 121° |
| 2026-05-06 23:06 | 26.59448 | -76.86278 | 39097 ft | 527 kts | 121° |
| 2026-05-06 23:07 | 26.55408 | -76.79445 | 39097 ft | 527 kts | 121° |
| 2026-05-06 23:07 | 26.51363 | -76.72615 | 39098 ft | 527 kts | 121° |
| 2026-05-06 23:08 | 26.47320 | -76.65799 | 39098 ft | 526 kts | 121° |
| 2026-05-06 23:08 | 26.43304 | -76.59039 | 39097 ft | 526 kts | 121° |
| 2026-05-06 23:09 | 26.39258 | -76.52238 | 39097 ft | 526 kts | 121° |
| 2026-05-06 23:09 | 26.35207 | -76.45440 | 39098 ft | 526 kts | 121° |
| 2026-05-06 23:10 | 26.31152 | -76.38644 | 39098 ft | 526 kts | 121° |
| 2026-05-06 23:10 | 26.27125 | -76.31906 | 39097 ft | 526 kts | 121° |
| 2026-05-06 23:11 | 26.23067 | -76.25125 | 39098 ft | 525 kts | 121° |
| 2026-05-06 23:11 | 26.19011 | -76.18358 | 39098 ft | 525 kts | 121° |
| 2026-05-06 23:12 | 26.14951 | -76.11594 | 39098 ft | 525 kts | 121° |
| 2026-05-06 23:12 | 26.10892 | -76.04841 | 39097 ft | 525 kts | 121° |
| 2026-05-06 23:13 | 26.06834 | -75.98101 | 39097 ft | 525 kts | 121° |
| 2026-05-06 23:13 | 26.02795 | -75.91402 | 39097 ft | 525 kts | 121° |
| 2026-05-06 23:14 | 25.98728 | -75.84665 | 39097 ft | 525 kts | 121° |
| 2026-05-06 23:14 | 25.94653 | -75.77926 | 39097 ft | 525 kts | 121° |
| 2026-05-06 23:15 | 25.90605 | -75.71241 | 39097 ft | 525 kts | 121° |
| 2026-05-06 23:15 | 25.86528 | -75.64518 | 39098 ft | 525 kts | 121° |
| 2026-05-06 23:16 | 25.82445 | -75.57796 | 39097 ft | 525 kts | 121° |
| 2026-05-06 23:16 | 25.79050 | -75.52212 | 39098 ft | 525 kts | 121° |
| 2026-05-06 23:17 | 25.74961 | -75.45497 | 39097 ft | 525 kts | 121° |
| 2026-05-06 23:17 | 25.70202 | -75.37694 | 39097 ft | 526 kts | 121° |
| 2026-05-06 23:18 | 25.66105 | -75.30986 | 39099 ft | 526 kts | 121° |
| 2026-05-06 23:18 | 25.62690 | -75.25402 | 39100 ft | 526 kts | 121° |
| 2026-05-06 23:19 | 25.58580 | -75.18692 | 39100 ft | 527 kts | 121° |
| 2026-05-06 23:19 | 25.54470 | -75.11991 | 39100 ft | 526 kts | 121° |
| 2026-05-06 23:20 | 25.50355 | -75.05290 | 39100 ft | 527 kts | 121° |
| 2026-05-06 23:20 | 25.46230 | -74.98582 | 39100 ft | 527 kts | 121° |
| 2026-05-06 23:21 | 25.42128 | -74.91922 | 39100 ft | 527 kts | 120° |
| 2026-05-06 23:21 | 25.37995 | -74.85223 | 39100 ft | 527 kts | 120° |
| 2026-05-06 23:22 | 25.33860 | -74.78527 | 39100 ft | 527 kts | 120° |
| 2026-05-06 23:22 | 25.29743 | -74.71871 | 39100 ft | 527 kts | 121° |
| 2026-05-06 23:23 | 25.25598 | -74.65180 | 39100 ft | 528 kts | 120° |
| 2026-05-06 23:23 | 25.21444 | -74.58482 | 39101 ft | 528 kts | 120° |
| 2026-05-06 23:24 | 25.17293 | -74.51801 | 39099 ft | 528 kts | 120° |
| 2026-05-06 23:24 | 25.13135 | -74.45116 | 39097 ft | 528 kts | 120° |
| 2026-05-06 23:25 | 25.09007 | -74.38488 | 39097 ft | 528 kts | 120° |
| 2026-05-06 23:25 | 25.04844 | -74.31815 | 39097 ft | 528 kts | 120° |
| 2026-05-06 23:26 | 25.00686 | -74.25159 | 39096 ft | 527 kts | 120° |
| 2026-05-06 23:26 | 24.96524 | -74.18505 | 39097 ft | 527 kts | 120° |
| 2026-05-06 23:27 | 24.92355 | -74.11848 | 39097 ft | 527 kts | 120° |
| 2026-05-06 23:27 | 24.88219 | -74.05255 | 39096 ft | 527 kts | 120° |
| 2026-05-06 23:28 | 24.84050 | -73.98617 | 39097 ft | 527 kts | 120° |
| 2026-05-06 23:28 | 24.79881 | -73.91990 | 39096 ft | 527 kts | 120° |
| 2026-05-06 23:29 | 24.75710 | -73.85367 | 39096 ft | 527 kts | 120° |
| 2026-05-06 23:29 | 24.71566 | -73.78795 | 39096 ft | 527 kts | 120° |
| 2026-05-06 23:30 | 24.67385 | -73.72177 | 39096 ft | 526 kts | 120° |
| 2026-05-06 23:30 | 24.63206 | -73.65569 | 39096 ft | 526 kts | 120° |
| 2026-05-06 23:31 | 24.59056 | -73.59014 | 39096 ft | 526 kts | 120° |
| 2026-05-06 23:31 | 24.54985 | -73.52349 | 39096 ft | 525 kts | 117° |
| 2026-05-06 23:32 | 24.51258 | -73.45475 | 39095 ft | 523 kts | 115° |
| 2026-05-06 23:32 | 24.47626 | -73.38566 | 39094 ft | 522 kts | 115° |
| 2026-05-06 23:33 | 24.43953 | -73.31691 | 39094 ft | 522 kts | 115° |
| 2026-05-06 23:33 | 24.40238 | -73.24838 | 39093 ft | 523 kts | 115° |
| 2026-05-06 23:34 | 24.36535 | -73.18033 | 39094 ft | 523 kts | 115° |
| 2026-05-06 23:34 | 24.32813 | -73.11196 | 39091 ft | 522 kts | 115° |
| 2026-05-06 23:35 | 24.29092 | -73.04358 | 39092 ft | 522 kts | 115° |
| 2026-05-06 23:35 | 24.25391 | -72.97565 | 39091 ft | 522 kts | 115° |
| 2026-05-06 23:36 | 24.21666 | -72.90739 | 39090 ft | 522 kts | 115° |
| 2026-05-06 23:36 | 24.17933 | -72.83910 | 39089 ft | 522 kts | 115° |
| 2026-05-06 23:37 | 24.14194 | -72.77079 | 39088 ft | 523 kts | 115° |
| 2026-05-06 23:37 | 24.10453 | -72.70255 | 39087 ft | 522 kts | 115° |
| 2026-05-06 23:38 | 24.06741 | -72.63491 | 39086 ft | 522 kts | 115° |
| 2026-05-06 23:38 | 24.02999 | -72.56683 | 39083 ft | 522 kts | 115° |
| 2026-05-06 23:39 | 23.99256 | -72.49883 | 39081 ft | 522 kts | 115° |
| 2026-05-06 23:39 | 23.95511 | -72.43089 | 39079 ft | 521 kts | 115° |
| 2026-05-06 23:40 | 23.91765 | -72.36302 | 39078 ft | 521 kts | 115° |
| 2026-05-06 23:40 | 23.88043 | -72.29566 | 39077 ft | 521 kts | 115° |
| 2026-05-06 23:41 | 23.84289 | -72.22783 | 39075 ft | 522 kts | 115° |
| 2026-05-06 23:41 | 23.80531 | -72.16003 | 39072 ft | 522 kts | 115° |
| 2026-05-06 23:42 | 23.76792 | -72.09264 | 39070 ft | 522 kts | 115° |
| 2026-05-06 23:42 | 23.73026 | -72.02488 | 39069 ft | 522 kts | 115° |
| 2026-05-06 23:43 | 23.69261 | -71.95723 | 39068 ft | 522 kts | 115° |
| 2026-05-06 23:43 | 23.65493 | -71.88961 | 39066 ft | 521 kts | 116° |
| 2026-05-06 23:44 | 23.61726 | -71.82215 | 39065 ft | 521 kts | 116° |
| 2026-05-06 23:44 | 23.57662 | -71.75730 | 39065 ft | 522 kts | 121° |
| 2026-05-06 23:45 | 23.53222 | -71.69430 | 39065 ft | 524 kts | 123° |
| 2026-05-06 23:45 | 23.48752 | -71.63157 | 39063 ft | 524 kts | 123° |
| 2026-05-06 23:46 | 23.44344 | -71.56860 | 39062 ft | 522 kts | 122° |
| 2026-05-06 23:46 | 23.39971 | -71.50554 | 39061 ft | 521 kts | 122° |
| 2026-05-06 23:47 | 23.35631 | -71.44300 | 39060 ft | 520 kts | 122° |
| 2026-05-06 23:47 | 23.31265 | -71.38027 | 39060 ft | 519 kts | 122° |
| 2026-05-06 23:48 | 23.26903 | -71.31775 | 39059 ft | 518 kts | 122° |
| 2026-05-06 23:48 | 23.22540 | -71.25530 | 39059 ft | 518 kts | 122° |
| 2026-05-06 23:49 | 23.18218 | -71.19348 | 39059 ft | 517 kts | 122° |
| 2026-05-06 23:49 | 23.13867 | -71.13133 | 39058 ft | 516 kts | 122° |
| 2026-05-06 23:50 | 23.09518 | -71.06929 | 39057 ft | 515 kts | 123° |
| 2026-05-06 23:50 | 23.03011 | -70.97657 | 39057 ft | 514 kts | 123° |
| 2026-05-06 23:51 | 22.98703 | -70.91529 | 39056 ft | 513 kts | 123° |
| 2026-05-06 23:51 | 22.94368 | -70.85370 | 39056 ft | 513 kts | 123° |
| 2026-05-06 23:52 | 22.90040 | -70.79233 | 39055 ft | 512 kts | 123° |
| 2026-05-06 23:52 | 22.85709 | -70.73108 | 39055 ft | 512 kts | 123° |
| 2026-05-06 23:53 | 22.81405 | -70.67032 | 39055 ft | 511 kts | 123° |
| 2026-05-06 23:53 | 22.77081 | -70.60933 | 39054 ft | 510 kts | 123° |
| 2026-05-06 23:54 | 22.72761 | -70.54844 | 39054 ft | 509 kts | 123° |
| 2026-05-06 23:54 | 22.68446 | -70.48771 | 39055 ft | 508 kts | 123° |
| 2026-05-06 23:55 | 22.64132 | -70.42706 | 39055 ft | 508 kts | 123° |
| 2026-05-06 23:55 | 22.59853 | -70.36697 | 39055 ft | 507 kts | 123° |
| 2026-05-06 23:56 | 22.55551 | -70.30662 | 39055 ft | 506 kts | 123° |
| 2026-05-06 23:56 | 22.51250 | -70.24636 | 39054 ft | 505 kts | 123° |
| 2026-05-06 23:57 | 22.46953 | -70.18622 | 39054 ft | 505 kts | 123° |
| 2026-05-06 23:57 | 22.42692 | -70.12666 | 39054 ft | 504 kts | 123° |
| 2026-05-06 23:58 | 22.38398 | -70.06671 | 39053 ft | 503 kts | 123° |
| 2026-05-06 23:58 | 22.34113 | -70.00693 | 39052 ft | 503 kts | 123° |
| 2026-05-06 23:59 | 22.29832 | -69.94729 | 39052 ft | 502 kts | 123° |
| 2026-05-06 23:59 | 22.25578 | -69.88810 | 39051 ft | 502 kts | 124° |
| 2026-05-07 00:00 | 22.21300 | -69.82864 | 39051 ft | 502 kts | 124° |
| 2026-05-07 00:00 | 22.17019 | -69.76920 | 39051 ft | 502 kts | 124° |
| 2026-05-07 00:01 | 22.12729 | -69.70971 | 39043 ft | 502 kts | 124° |
| 2026-05-07 00:01 | 22.08472 | -69.65074 | 39037 ft | 502 kts | 124° |
| 2026-05-07 00:02 | 22.04180 | -69.59134 | 39036 ft | 502 kts | 124° |
| 2026-05-07 00:02 | 21.99892 | -69.53208 | 39035 ft | 501 kts | 124° |
| 2026-05-07 00:03 | 21.95602 | -69.47285 | 39035 ft | 504 kts | 123° |
| 2026-05-07 00:03 | 21.91277 | -69.41315 | 39055 ft | 511 kts | 123° |
| 2026-05-07 00:04 | 21.86900 | -69.35286 | 39075 ft | 511 kts | 124° |
| 2026-05-07 00:04 | 21.82521 | -69.29263 | 39078 ft | 510 kts | 124° |
| 2026-05-07 00:05 | 21.78148 | -69.23254 | 39078 ft | 509 kts | 124° |
| 2026-05-07 00:05 | 21.73815 | -69.17305 | 39069 ft | 508 kts | 124° |
| 2026-05-07 00:06 | 21.69467 | -69.11340 | 39068 ft | 507 kts | 124° |
| 2026-05-07 00:06 | 21.65116 | -69.05379 | 39069 ft | 506 kts | 124° |
| 2026-05-07 00:07 | 21.60773 | -68.99436 | 39070 ft | 505 kts | 124° |
| 2026-05-07 00:07 | 21.56436 | -68.93506 | 39064 ft | 504 kts | 124° |
| 2026-05-07 00:08 | 21.52133 | -68.87630 | 39058 ft | 503 kts | 124° |
| 2026-05-07 00:08 | 21.47812 | -68.81735 | 39058 ft | 502 kts | 125° |
| 2026-05-07 00:09 | 21.43488 | -68.75843 | 39058 ft | 502 kts | 125° |
| 2026-05-07 00:09 | 21.39172 | -68.69968 | 39058 ft | 501 kts | 125° |
| 2026-05-07 00:10 | 21.34860 | -68.64105 | 39058 ft | 500 kts | 125° |
| 2026-05-07 00:10 | 21.30576 | -68.58285 | 39058 ft | 500 kts | 125° |
| 2026-05-07 00:11 | 21.26276 | -68.52450 | 39059 ft | 499 kts | 125° |
| 2026-05-07 00:11 | 21.21967 | -68.46609 | 39059 ft | 499 kts | 125° |
| 2026-05-07 00:12 | 21.17666 | -68.40785 | 39061 ft | 499 kts | 125° |
| 2026-05-07 00:12 | 21.13388 | -68.34998 | 39059 ft | 498 kts | 125° |
| 2026-05-07 00:13 | 21.09094 | -68.29196 | 39059 ft | 498 kts | 125° |
| 2026-05-07 00:13 | 21.04786 | -68.23380 | 39059 ft | 497 kts | 125° |
| 2026-05-07 00:14 | 21.00491 | -68.17590 | 39060 ft | 497 kts | 125° |
| 2026-05-07 00:14 | 20.96215 | -68.11829 | 39061 ft | 497 kts | 126° |
| 2026-05-07 00:15 | 20.91923 | -68.06053 | 39062 ft | 497 kts | 126° |
| 2026-05-07 00:15 | 20.87623 | -68.00273 | 39062 ft | 496 kts | 126° |
| 2026-05-07 00:16 | 20.83364 | -67.94491 | 39063 ft | 492 kts | 126° |